sensor_id;sensor_type;location;lat;lon;timestamp;temperature;humidity
67769;DHT22;54569;52.018;5.584;2023-02-01T00:01:32;5.70;92.50
67769;DHT22;54569;52.018;5.584;2023-02-01T00:41:03;5.80;91.30
67769;DHT22;54569;52.018;5.584;2023-02-01T00:43:33;5.90;92.10
67769;DHT22;54569;52.018;5.584;2023-02-01T00:45:59;5.90;93.20
67769;DHT22;54569;52.018;5.584;2023-02-01T00:48:26;6.10;93.30
67769;DHT22;54569;52.018;5.584;2023-02-01T00:51:11;6.00;93.20
67769;DHT22;54569;52.018;5.584;2023-02-01T00:53:37;6.00;93.10
67769;DHT22;54569;52.018;5.584;2023-02-01T00:56:03;6.10;93.60
67769;DHT22;54569;52.018;5.584;2023-02-01T00:58:29;6.10;86.50
67769;DHT22;54569;52.018;5.584;2023-02-01T01:03:38;6.20;88.30
67769;DHT22;54569;52.018;5.584;2023-02-01T01:06:07;6.20;94.20
67769;DHT22;54569;52.018;5.584;2023-02-01T01:08:33;6.10;95.10
67769;DHT22;54569;52.018;5.584;2023-02-01T01:10:59;6.10;86.20
67769;DHT22;54569;52.018;5.584;2023-02-01T01:13:28;6.00;84.50
67769;DHT22;54569;52.018;5.584;2023-02-01T01:15:54;6.00;84.60
67769;DHT22;54569;52.018;5.584;2023-02-01T01:18:20;6.00;85.30
67769;DHT22;54569;52.018;5.584;2023-02-01T01:20:47;5.90;84.90
67769;DHT22;54569;52.018;5.584;2023-02-01T01:23:13;5.90;85.20
67769;DHT22;54569;52.018;5.584;2023-02-01T01:25:39;5.90;85.30
67769;DHT22;54569;52.018;5.584;2023-02-01T01:28:05;5.90;85.50
67769;DHT22;54569;52.018;5.584;2023-02-01T01:30:33;5.90;85.50
67769;DHT22;54569;52.018;5.584;2023-02-01T01:32:58;5.90;85.50
67769;DHT22;54569;52.018;5.584;2023-02-01T01:35:24;5.90;85.40
67769;DHT22;54569;52.018;5.584;2023-02-01T01:37:50;5.90;85.30
67769;DHT22;54569;52.018;5.584;2023-02-01T01:40:16;5.90;85.30
67769;DHT22;54569;52.018;5.584;2023-02-01T01:42:43;5.90;85.40
67769;DHT22;54569;52.018;5.584;2023-02-01T01:47:55;5.80;85.60
67769;DHT22;54569;52.018;5.584;2023-02-01T01:50:31;5.80;85.70
67769;DHT22;54569;52.018;5.584;2023-02-01T01:53:00;5.70;85.90
67769;DHT22;54569;52.018;5.584;2023-02-01T01:55:31;5.70;86.10
67769;DHT22;54569;52.018;5.584;2023-02-01T01:58:04;5.70;86.10
67769;DHT22;54569;52.018;5.584;2023-02-01T02:00:32;5.70;86.20
67769;DHT22;54569;52.018;5.584;2023-02-01T02:03:02;5.70;86.30
67769;DHT22;54569;52.018;5.584;2023-02-01T02:05:29;5.70;86.20
67769;DHT22;54569;52.018;5.584;2023-02-01T02:07:59;5.60;86.20
67769;DHT22;54569;52.018;5.584;2023-02-01T02:10:26;5.70;86.20
67769;DHT22;54569;52.018;5.584;2023-02-01T02:13:14;5.60;86.20
67769;DHT22;54569;52.018;5.584;2023-02-01T02:15:45;5.60;86.20
67769;DHT22;54569;52.018;5.584;2023-02-01T02:18:30;5.60;86.20
67769;DHT22;54569;52.018;5.584;2023-02-01T02:29:35;5.70;86.20
67769;DHT22;54569;52.018;5.584;2023-02-01T02:32:25;5.70;86.10
67769;DHT22;54569;52.018;5.584;2023-02-01T02:35:01;5.70;86.00
67769;DHT22;54569;52.018;5.584;2023-02-01T02:38:08;5.80;85.90
67769;DHT22;54569;52.018;5.584;2023-02-01T02:43:46;5.90;85.60
67769;DHT22;54569;52.018;5.584;2023-02-01T02:46:37;5.90;85.40
67769;DHT22;54569;52.018;5.584;2023-02-01T02:49:32;6.00;85.20
67769;DHT22;54569;52.018;5.584;2023-02-01T02:52:13;6.00;85.00
67769;DHT22;54569;52.018;5.584;2023-02-01T02:54:59;6.10;85.00
67769;DHT22;54569;52.018;5.584;2023-02-01T02:57:32;6.10;85.00
67769;DHT22;54569;52.018;5.584;2023-02-01T03:00:19;6.10;85.10
67769;DHT22;54569;52.018;5.584;2023-02-01T03:03:05;6.20;84.90
67769;DHT22;54569;52.018;5.584;2023-02-01T03:05:50;6.20;84.80
67769;DHT22;54569;52.018;5.584;2023-02-01T03:08:25;6.30;84.80
67769;DHT22;54569;52.018;5.584;2023-02-01T03:11:02;6.40;84.70
67769;DHT22;54569;52.018;5.584;2023-02-01T03:13:44;6.40;84.60
67769;DHT22;54569;52.018;5.584;2023-02-01T03:16:17;6.50;84.50
67769;DHT22;54569;52.018;5.584;2023-02-01T03:21:50;6.50;84.70
67769;DHT22;54569;52.018;5.584;2023-02-01T03:24:33;6.50;84.70
67769;DHT22;54569;52.018;5.584;2023-02-01T03:32:38;6.50;84.80
67769;DHT22;54569;52.018;5.584;2023-02-01T03:35:44;6.50;84.80
67769;DHT22;54569;52.018;5.584;2023-02-01T03:38:20;6.50;84.90
67769;DHT22;54569;52.018;5.584;2023-02-01T03:40:53;6.50;85.30
67769;DHT22;54569;52.018;5.584;2023-02-01T03:43:21;6.50;85.00
67769;DHT22;54569;52.018;5.584;2023-02-01T03:45:54;6.50;84.90
67769;DHT22;54569;52.018;5.584;2023-02-01T03:48:23;6.50;84.80
67769;DHT22;54569;52.018;5.584;2023-02-01T03:50:54;6.40;84.80
67769;DHT22;54569;52.018;5.584;2023-02-01T03:53:25;6.40;84.90
67769;DHT22;54569;52.018;5.584;2023-02-01T03:55:53;6.40;85.00
67769;DHT22;54569;52.018;5.584;2023-02-01T03:58:21;6.40;85.00
67769;DHT22;54569;52.018;5.584;2023-02-01T04:03:17;6.40;84.80
67769;DHT22;54569;52.018;5.584;2023-02-01T04:05:43;6.40;84.70
67769;DHT22;54569;52.018;5.584;2023-02-01T04:08:09;6.40;84.80
67769;DHT22;54569;52.018;5.584;2023-02-01T04:10:35;6.30;84.80
67769;DHT22;54569;52.018;5.584;2023-02-01T04:13:00;6.40;84.90
67769;DHT22;54569;52.018;5.584;2023-02-01T04:15:26;6.40;84.90
67769;DHT22;54569;52.018;5.584;2023-02-01T04:17:52;6.40;84.80
67769;DHT22;54569;52.018;5.584;2023-02-01T04:20:17;6.40;84.60
67769;DHT22;54569;52.018;5.584;2023-02-01T04:22:43;6.40;84.60
67769;DHT22;54569;52.018;5.584;2023-02-01T04:25:09;6.50;84.50
67769;DHT22;54569;52.018;5.584;2023-02-01T04:27:35;6.50;84.30
67769;DHT22;54569;52.018;5.584;2023-02-01T04:30:01;6.60;84.20
67769;DHT22;54569;52.018;5.584;2023-02-01T04:32:27;6.60;84.00
67769;DHT22;54569;52.018;5.584;2023-02-01T04:34:53;6.60;83.70
67769;DHT22;54569;52.018;5.584;2023-02-01T04:37:19;6.70;83.70
67769;DHT22;54569;52.018;5.584;2023-02-01T04:39:44;6.70;83.50
67769;DHT22;54569;52.018;5.584;2023-02-01T04:42:10;6.80;83.40
67769;DHT22;54569;52.018;5.584;2023-02-01T04:44:36;6.80;83.40
67769;DHT22;54569;52.018;5.584;2023-02-01T04:47:07;6.80;83.30
67769;DHT22;54569;52.018;5.584;2023-02-01T04:49:33;6.80;83.30
67769;DHT22;54569;52.018;5.584;2023-02-01T04:51:59;6.90;83.80
67769;DHT22;54569;52.018;5.584;2023-02-01T04:54:24;6.80;83.20
67769;DHT22;54569;52.018;5.584;2023-02-01T04:56:50;6.90;82.90
67769;DHT22;54569;52.018;5.584;2023-02-01T04:59:16;6.90;82.90
67769;DHT22;54569;52.018;5.584;2023-02-01T05:01:42;6.90;83.50
67769;DHT22;54569;52.018;5.584;2023-02-01T05:04:07;6.90;82.90
67769;DHT22;54569;52.018;5.584;2023-02-01T05:06:34;6.90;82.90
67769;DHT22;54569;52.018;5.584;2023-02-01T05:09:00;6.90;82.50
67769;DHT22;54569;52.018;5.584;2023-02-01T05:11:26;7.00;82.40
67769;DHT22;54569;52.018;5.584;2023-02-01T05:14:10;6.90;82.30
67769;DHT22;54569;52.018;5.584;2023-02-01T05:16:36;6.90;82.40
67769;DHT22;54569;52.018;5.584;2023-02-01T05:19:02;6.90;82.60
67769;DHT22;54569;52.018;5.584;2023-02-01T05:21:27;6.90;82.70
67769;DHT22;54569;52.018;5.584;2023-02-01T05:23:53;7.00;82.70
67769;DHT22;54569;52.018;5.584;2023-02-01T05:26:38;7.00;82.70
67769;DHT22;54569;52.018;5.584;2023-02-01T05:29:05;7.00;82.60
67769;DHT22;54569;52.018;5.584;2023-02-01T05:31:31;6.90;82.60
67769;DHT22;54569;52.018;5.584;2023-02-01T05:33:56;6.90;82.50
67769;DHT22;54569;52.018;5.584;2023-02-01T05:36:22;6.90;82.70
67769;DHT22;54569;52.018;5.584;2023-02-01T05:38:48;6.90;82.80
67769;DHT22;54569;52.018;5.584;2023-02-01T05:41:13;6.90;82.70
67769;DHT22;54569;52.018;5.584;2023-02-01T05:43:39;6.90;82.80
67769;DHT22;54569;52.018;5.584;2023-02-01T05:46:05;6.90;82.50
67769;DHT22;54569;52.018;5.584;2023-02-01T05:48:30;6.90;82.60
67769;DHT22;54569;52.018;5.584;2023-02-01T05:50:56;7.00;82.60
67769;DHT22;54569;52.018;5.584;2023-02-01T05:53:22;7.00;82.60
67769;DHT22;54569;52.018;5.584;2023-02-01T05:55:47;6.90;82.70
67769;DHT22;54569;52.018;5.584;2023-02-01T05:58:13;7.00;82.70
67769;DHT22;54569;52.018;5.584;2023-02-01T06:00:39;6.90;82.70
67769;DHT22;54569;52.018;5.584;2023-02-01T06:03:05;7.00;82.80
67769;DHT22;54569;52.018;5.584;2023-02-01T06:05:31;7.00;82.70
67769;DHT22;54569;52.018;5.584;2023-02-01T06:07:57;7.00;82.80
67769;DHT22;54569;52.018;5.584;2023-02-01T06:10:23;7.00;82.80
67769;DHT22;54569;52.018;5.584;2023-02-01T06:12:49;7.00;82.60
67769;DHT22;54569;52.018;5.584;2023-02-01T06:15:15;7.00;82.70
67769;DHT22;54569;52.018;5.584;2023-02-01T06:17:45;7.00;82.70
67769;DHT22;54569;52.018;5.584;2023-02-01T06:20:13;7.00;82.60
67769;DHT22;54569;52.018;5.584;2023-02-01T06:22:39;7.00;82.80
67769;DHT22;54569;52.018;5.584;2023-02-01T06:25:07;7.00;82.70
67769;DHT22;54569;52.018;5.584;2023-02-01T06:27:33;7.00;82.80
67769;DHT22;54569;52.018;5.584;2023-02-01T06:29:59;7.00;82.70
67769;DHT22;54569;52.018;5.584;2023-02-01T06:32:25;7.00;82.60
67769;DHT22;54569;52.018;5.584;2023-02-01T06:34:51;7.00;82.80
67769;DHT22;54569;52.018;5.584;2023-02-01T06:37:21;7.00;82.80
67769;DHT22;54569;52.018;5.584;2023-02-01T06:39:48;7.00;82.80
67769;DHT22;54569;52.018;5.584;2023-02-01T06:42:14;7.00;82.70
67769;DHT22;54569;52.018;5.584;2023-02-01T06:44:40;7.00;82.80
67769;DHT22;54569;52.018;5.584;2023-02-01T06:47:06;7.00;83.00
67769;DHT22;54569;52.018;5.584;2023-02-01T06:49:31;6.90;82.90
67769;DHT22;54569;52.018;5.584;2023-02-01T06:51:57;6.90;83.10
67769;DHT22;54569;52.018;5.584;2023-02-01T06:54:28;6.90;83.30
67769;DHT22;54569;52.018;5.584;2023-02-01T06:56:57;6.80;83.50
67769;DHT22;54569;52.018;5.584;2023-02-01T06:59:23;6.70;83.60
67769;DHT22;54569;52.018;5.584;2023-02-01T07:01:49;6.70;83.60
67769;DHT22;54569;52.018;5.584;2023-02-01T07:04:15;6.70;83.70
67769;DHT22;54569;52.018;5.584;2023-02-01T07:06:41;6.70;84.40
67769;DHT22;54569;52.018;5.584;2023-02-01T07:09:07;6.70;83.90
67769;DHT22;54569;52.018;5.584;2023-02-01T07:11:33;6.70;83.90
67769;DHT22;54569;52.018;5.584;2023-02-01T07:13:59;6.70;84.00
67769;DHT22;54569;52.018;5.584;2023-02-01T07:16:25;6.70;84.00
67769;DHT22;54569;52.018;5.584;2023-02-01T07:18:52;6.70;84.00
67769;DHT22;54569;52.018;5.584;2023-02-01T07:21:19;6.70;84.00
67769;DHT22;54569;52.018;5.584;2023-02-01T07:23:45;6.70;84.00
67769;DHT22;54569;52.018;5.584;2023-02-01T07:26:12;6.70;84.00
67769;DHT22;54569;52.018;5.584;2023-02-01T07:28:39;6.70;84.00
67769;DHT22;54569;52.018;5.584;2023-02-01T07:31:11;6.70;83.90
67769;DHT22;54569;52.018;5.584;2023-02-01T07:33:37;6.80;83.90
67769;DHT22;54569;52.018;5.584;2023-02-01T07:36:05;6.80;83.80
67769;DHT22;54569;52.018;5.584;2023-02-01T07:38:31;6.80;83.70
67769;DHT22;54569;52.018;5.584;2023-02-01T07:41:02;6.80;83.60
67769;DHT22;54569;52.018;5.584;2023-02-01T07:43:28;6.80;83.80
67769;DHT22;54569;52.018;5.584;2023-02-01T07:45:55;6.80;83.80
67769;DHT22;54569;52.018;5.584;2023-02-01T07:48:22;6.80;83.90
67769;DHT22;54569;52.018;5.584;2023-02-01T07:50:56;6.80;84.10
67769;DHT22;54569;52.018;5.584;2023-02-01T07:53:21;6.80;84.20
67769;DHT22;54569;52.018;5.584;2023-02-01T07:55:47;6.80;83.80
67769;DHT22;54569;52.018;5.584;2023-02-01T07:58:13;6.80;83.60
67769;DHT22;54569;52.018;5.584;2023-02-01T08:00:39;6.90;83.80
67769;DHT22;54569;52.018;5.584;2023-02-01T08:03:23;6.90;83.20
67769;DHT22;54569;52.018;5.584;2023-02-01T08:05:54;6.90;83.50
67769;DHT22;54569;52.018;5.584;2023-02-01T08:08:20;7.00;83.30
67769;DHT22;54569;52.018;5.584;2023-02-01T08:10:45;7.00;83.00
67769;DHT22;54569;52.018;5.584;2023-02-01T08:13:11;7.00;83.40
67769;DHT22;54569;52.018;5.584;2023-02-01T08:15:37;7.10;83.20
67769;DHT22;54569;52.018;5.584;2023-02-01T08:18:02;7.10;82.90
67769;DHT22;54569;52.018;5.584;2023-02-01T08:20:28;7.10;83.00
67769;DHT22;54569;52.018;5.584;2023-02-01T08:22:54;7.20;83.30
67769;DHT22;54569;52.018;5.584;2023-02-01T08:25:20;7.20;82.50
67769;DHT22;54569;52.018;5.584;2023-02-01T08:27:46;7.30;82.60
67769;DHT22;54569;52.018;5.584;2023-02-01T08:30:12;7.30;82.30
67769;DHT22;54569;52.018;5.584;2023-02-01T08:32:38;7.40;82.10
67769;DHT22;54569;52.018;5.584;2023-02-01T08:35:04;7.40;81.60
67769;DHT22;54569;52.018;5.584;2023-02-01T08:37:30;7.50;81.60
67769;DHT22;54569;52.018;5.584;2023-02-01T08:39:56;7.90;81.50
67769;DHT22;54569;52.018;5.584;2023-02-01T08:42:22;8.60;80.10
67769;DHT22;54569;52.018;5.584;2023-02-01T08:45:06;9.40;77.20
67769;DHT22;54569;52.018;5.584;2023-02-01T08:47:34;10.40;75.50
67769;DHT22;54569;52.018;5.584;2023-02-01T08:50:00;11.50;90.40
67769;DHT22;54569;52.018;5.584;2023-02-01T08:52:26;12.30;70.30
67769;DHT22;54569;52.018;5.584;2023-02-01T08:54:51;13.50;68.00
67769;DHT22;54569;52.018;5.584;2023-02-01T08:57:17;14.60;65.50
67769;DHT22;54569;52.018;5.584;2023-02-01T08:59:43;15.30;64.00
67769;DHT22;54569;52.018;5.584;2023-02-01T09:02:13;15.80;62.70
67769;DHT22;54569;52.018;5.584;2023-02-01T09:04:40;16.20;62.20
67769;DHT22;54569;52.018;5.584;2023-02-01T09:07:06;15.90;62.90
67769;DHT22;54569;52.018;5.584;2023-02-01T09:09:32;15.20;63.90
67769;DHT22;54569;52.018;5.584;2023-02-01T09:11:57;14.10;65.30
67769;DHT22;54569;52.018;5.584;2023-02-01T09:14:23;13.10;68.10
67769;DHT22;54569;52.018;5.584;2023-02-01T09:16:48;12.70;70.10
67769;DHT22;54569;52.018;5.584;2023-02-01T09:19:14;12.90;69.70
67769;DHT22;54569;52.018;5.584;2023-02-01T09:21:40;13.60;69.30
67769;DHT22;54569;52.018;5.584;2023-02-01T09:24:06;14.90;67.00
67769;DHT22;54569;52.018;5.584;2023-02-01T09:26:32;16.20;64.50
67769;DHT22;54569;52.018;5.584;2023-02-01T09:28:59;16.70;62.20
67769;DHT22;54569;52.018;5.584;2023-02-01T09:31:25;16.40;62.40
67769;DHT22;54569;52.018;5.584;2023-02-01T09:33:50;15.80;63.70
67769;DHT22;54569;52.018;5.584;2023-02-01T09:36:16;15.70;64.50
67769;DHT22;54569;52.018;5.584;2023-02-01T09:38:45;15.40;64.80
67769;DHT22;54569;52.018;5.584;2023-02-01T09:41:42;15.30;65.00
67769;DHT22;54569;52.018;5.584;2023-02-01T09:47:01;13.50;66.00
67769;DHT22;54569;52.018;5.584;2023-02-01T09:49:32;12.70;72.30
67769;DHT22;54569;52.018;5.584;2023-02-01T09:52:01;12.00;70.90
67769;DHT22;54569;52.018;5.584;2023-02-01T09:54:49;11.30;72.50
67769;DHT22;54569;52.018;5.584;2023-02-01T09:57:25;10.70;71.80
67769;DHT22;54569;52.018;5.584;2023-02-01T10:00:00;10.20;74.10
67769;DHT22;54569;52.018;5.584;2023-02-01T10:02:31;9.90;75.30
67769;DHT22;54569;52.018;5.584;2023-02-01T10:05:01;9.70;75.90
67769;DHT22;54569;52.018;5.584;2023-02-01T10:10:00;9.30;75.90
67769;DHT22;54569;52.018;5.584;2023-02-01T10:23:50;8.70;76.30
67769;DHT22;54569;52.018;5.584;2023-02-01T10:28:51;8.60;77.50
67769;DHT22;54569;52.018;5.584;2023-02-01T10:31:18;8.50;77.60
67769;DHT22;54569;52.018;5.584;2023-02-01T10:33:49;8.50;77.90
67769;DHT22;54569;52.018;5.584;2023-02-01T10:36:32;8.40;78.10
67769;DHT22;54569;52.018;5.584;2023-02-01T10:38:59;8.30;78.40
67769;DHT22;54569;52.018;5.584;2023-02-01T10:41:38;8.20;79.00
67769;DHT22;54569;52.018;5.584;2023-02-01T10:44:09;8.00;79.60
67769;DHT22;54569;52.018;5.584;2023-02-01T10:46:36;7.90;80.10
67769;DHT22;54569;52.018;5.584;2023-02-01T10:49:04;7.80;80.60
67769;DHT22;54569;52.018;5.584;2023-02-01T10:51:43;7.80;80.80
67769;DHT22;54569;52.018;5.584;2023-02-01T10:54:17;7.80;81.00
67769;DHT22;54569;52.018;5.584;2023-02-01T10:56:44;7.70;80.90
67769;DHT22;54569;52.018;5.584;2023-02-01T10:59:23;7.70;80.90
67769;DHT22;54569;52.018;5.584;2023-02-01T11:01:50;7.70;81.00
67769;DHT22;54569;52.018;5.584;2023-02-01T11:04:16;7.70;81.00
67769;DHT22;54569;52.018;5.584;2023-02-01T11:06:48;7.80;80.70
67769;DHT22;54569;52.018;5.584;2023-02-01T11:14:22;7.80;80.10
67769;DHT22;54569;52.018;5.584;2023-02-01T11:17:00;7.80;80.00
67769;DHT22;54569;52.018;5.584;2023-02-01T11:19:27;7.80;79.80
67769;DHT22;54569;52.018;5.584;2023-02-01T11:21:54;7.90;79.70
67769;DHT22;54569;52.018;5.584;2023-02-01T11:24:32;7.90;79.40
67769;DHT22;54569;52.018;5.584;2023-02-01T11:27:01;7.90;79.30
67769;DHT22;54569;52.018;5.584;2023-02-01T11:29:38;7.90;79.10
67769;DHT22;54569;52.018;5.584;2023-02-01T11:32:05;8.00;79.30
67769;DHT22;54569;52.018;5.584;2023-02-01T11:34:47;7.90;79.20
67769;DHT22;54569;52.018;5.584;2023-02-01T11:37:32;7.90;79.40
67769;DHT22;54569;52.018;5.584;2023-02-01T11:40:03;8.00;79.80
67769;DHT22;54569;52.018;5.584;2023-02-01T11:42:32;7.90;79.70
67769;DHT22;54569;52.018;5.584;2023-02-01T11:45:25;7.90;79.90
67769;DHT22;54569;52.018;5.584;2023-02-01T11:47:53;7.90;80.10
67769;DHT22;54569;52.018;5.584;2023-02-01T12:06:58;8.20;79.60
67769;DHT22;54569;52.018;5.584;2023-02-01T12:12:46;8.40;79.20
67769;DHT22;54569;52.018;5.584;2023-02-01T12:24:05;8.90;77.20
67769;DHT22;54569;52.018;5.584;2023-02-01T12:37:33;9.00;76.70
67769;DHT22;54569;52.018;5.584;2023-02-01T12:42:39;8.90;77.00
67769;DHT22;54569;52.018;5.584;2023-02-01T12:45:20;8.90;77.00
67769;DHT22;54569;52.018;5.584;2023-02-01T12:47:54;8.90;76.90
67769;DHT22;54569;52.018;5.584;2023-02-01T12:50:51;8.80;76.40
67769;DHT22;54569;52.018;5.584;2023-02-01T12:53:45;8.80;76.60
67769;DHT22;54569;52.018;5.584;2023-02-01T12:56:16;8.80;76.90
67769;DHT22;54569;52.018;5.584;2023-02-01T12:58:50;8.70;77.10
67769;DHT22;54569;52.018;5.584;2023-02-01T13:01:23;8.80;77.00
67769;DHT22;54569;52.018;5.584;2023-02-01T13:07:08;8.70;76.80
67769;DHT22;54569;52.018;5.584;2023-02-01T13:12:25;8.70;77.30
67769;DHT22;54569;52.018;5.584;2023-02-01T13:15:11;8.70;77.50
67769;DHT22;54569;52.018;5.584;2023-02-01T13:17:38;8.70;77.10
67769;DHT22;54569;52.018;5.584;2023-02-01T13:23:22;8.70;76.60
67769;DHT22;54569;52.018;5.584;2023-02-01T13:25:52;8.80;76.60
67769;DHT22;54569;52.018;5.584;2023-02-01T13:28:28;8.70;77.20
67769;DHT22;54569;52.018;5.584;2023-02-01T13:30:58;8.70;77.00
67769;DHT22;54569;52.018;5.584;2023-02-01T13:33:37;8.70;77.30
67769;DHT22;54569;52.018;5.584;2023-02-01T13:36:36;8.70;77.50
67769;DHT22;54569;52.018;5.584;2023-02-01T13:42:16;8.70;77.20
67769;DHT22;54569;52.018;5.584;2023-02-01T13:44:47;8.70;77.40
67769;DHT22;54569;52.018;5.584;2023-02-01T13:47:29;8.70;77.40
67769;DHT22;54569;52.018;5.584;2023-02-01T13:49:59;8.70;77.30
67769;DHT22;54569;52.018;5.584;2023-02-01T13:52:42;8.70;77.30
67769;DHT22;54569;52.018;5.584;2023-02-01T13:57:51;8.70;77.10
67769;DHT22;54569;52.018;5.584;2023-02-01T14:00:33;8.70;77.30
67769;DHT22;54569;52.018;5.584;2023-02-01T14:32:11;8.80;76.60
67769;DHT22;54569;52.018;5.584;2023-02-01T14:37:26;8.80;77.20
67769;DHT22;54569;52.018;5.584;2023-02-01T14:40:02;8.80;77.10
67769;DHT22;54569;52.018;5.584;2023-02-01T14:42:46;8.80;77.40
67769;DHT22;54569;52.018;5.584;2023-02-01T14:47:54;8.80;77.40
67769;DHT22;54569;52.018;5.584;2023-02-01T14:56:08;8.70;77.60
67769;DHT22;54569;52.018;5.584;2023-02-01T14:58:45;8.70;77.60
67769;DHT22;54569;52.018;5.584;2023-02-01T15:04:05;8.70;77.90
67769;DHT22;54569;52.018;5.584;2023-02-01T15:09:16;8.70;77.90
67769;DHT22;54569;52.018;5.584;2023-02-01T15:14:23;8.70;78.10
67769;DHT22;54569;52.018;5.584;2023-02-01T15:16:49;8.70;78.30
67769;DHT22;54569;52.018;5.584;2023-02-01T15:19:25;8.70;78.90
67769;DHT22;54569;52.018;5.584;2023-02-01T15:21:54;8.60;79.10
67769;DHT22;54569;52.018;5.584;2023-02-01T15:24:23;8.60;79.30
67769;DHT22;54569;52.018;5.584;2023-02-01T15:26:50;8.60;79.30
67769;DHT22;54569;52.018;5.584;2023-02-01T15:29:17;8.60;79.40
67769;DHT22;54569;52.018;5.584;2023-02-01T15:31:49;8.60;79.50
67769;DHT22;54569;52.018;5.584;2023-02-01T15:34:16;8.60;79.60
67769;DHT22;54569;52.018;5.584;2023-02-01T15:36:43;8.60;79.50
67769;DHT22;54569;52.018;5.584;2023-02-01T15:39:21;8.70;79.50
67769;DHT22;54569;52.018;5.584;2023-02-01T15:42:11;8.60;79.50
67769;DHT22;54569;52.018;5.584;2023-02-01T15:44:45;8.70;79.60
67769;DHT22;54569;52.018;5.584;2023-02-01T15:47:26;8.60;79.60
67769;DHT22;54569;52.018;5.584;2023-02-01T15:49:54;8.70;79.70
67769;DHT22;54569;52.018;5.584;2023-02-01T15:52:35;8.60;79.70
67769;DHT22;54569;52.018;5.584;2023-02-01T15:55:05;8.60;79.70
67769;DHT22;54569;52.018;5.584;2023-02-01T15:57:36;8.70;79.80
67769;DHT22;54569;52.018;5.584;2023-02-01T16:00:25;8.60;79.70
67769;DHT22;54569;52.018;5.584;2023-02-01T16:02:59;8.70;79.80
67769;DHT22;54569;52.018;5.584;2023-02-01T16:05:42;8.70;79.80
67769;DHT22;54569;52.018;5.584;2023-02-01T16:08:20;8.70;79.80
67769;DHT22;54569;52.018;5.584;2023-02-01T16:10:49;8.60;79.70
67769;DHT22;54569;52.018;5.584;2023-02-01T16:13:16;8.60;79.80
67769;DHT22;54569;52.018;5.584;2023-02-01T16:15:42;8.60;79.80
67769;DHT22;54569;52.018;5.584;2023-02-01T16:18:11;8.70;79.80
67769;DHT22;54569;52.018;5.584;2023-02-01T16:20:39;8.60;79.80
67769;DHT22;54569;52.018;5.584;2023-02-01T16:23:06;8.60;79.80
67769;DHT22;54569;52.018;5.584;2023-02-01T16:25:32;8.70;79.80
67769;DHT22;54569;52.018;5.584;2023-02-01T16:27:58;8.70;79.90
67769;DHT22;54569;52.018;5.584;2023-02-01T16:30:24;8.70;79.90
67769;DHT22;54569;52.018;5.584;2023-02-01T16:33:00;8.70;79.80
67769;DHT22;54569;52.018;5.584;2023-02-01T16:35:35;8.70;79.80
67769;DHT22;54569;52.018;5.584;2023-02-01T16:38:10;8.70;79.90
67769;DHT22;54569;52.018;5.584;2023-02-01T16:40:39;8.70;79.80
67769;DHT22;54569;52.018;5.584;2023-02-01T16:43:12;8.70;79.80
67769;DHT22;54569;52.018;5.584;2023-02-01T16:45:38;8.70;79.80
67769;DHT22;54569;52.018;5.584;2023-02-01T16:48:05;8.70;79.70
67769;DHT22;54569;52.018;5.584;2023-02-01T16:50:32;8.70;79.80
67769;DHT22;54569;52.018;5.584;2023-02-01T16:52:58;8.70;79.70
67769;DHT22;54569;52.018;5.584;2023-02-01T16:55:24;8.80;79.80
67769;DHT22;54569;52.018;5.584;2023-02-01T16:57:53;8.70;79.70
67769;DHT22;54569;52.018;5.584;2023-02-01T17:00:19;8.80;79.70
67769;DHT22;54569;52.018;5.584;2023-02-01T17:02:45;8.80;79.60
67769;DHT22;54569;52.018;5.584;2023-02-01T17:05:11;8.80;79.70
67769;DHT22;54569;52.018;5.584;2023-02-01T17:07:38;8.80;79.60
67769;DHT22;54569;52.018;5.584;2023-02-01T17:10:09;8.80;79.50
67769;DHT22;54569;52.018;5.584;2023-02-01T17:12:37;8.80;79.50
67769;DHT22;54569;52.018;5.584;2023-02-01T17:15:03;8.80;79.40
67769;DHT22;54569;52.018;5.584;2023-02-01T17:17:35;8.80;79.30
67769;DHT22;54569;52.018;5.584;2023-02-01T17:20:01;8.90;79.40
67769;DHT22;54569;52.018;5.584;2023-02-01T17:22:28;8.90;79.30
67769;DHT22;54569;52.018;5.584;2023-02-01T17:24:54;8.90;79.20
67769;DHT22;54569;52.018;5.584;2023-02-01T17:27:20;8.90;79.20
67769;DHT22;54569;52.018;5.584;2023-02-01T17:29:45;8.90;79.20
67769;DHT22;54569;52.018;5.584;2023-02-01T17:32:21;8.90;79.20
67769;DHT22;54569;52.018;5.584;2023-02-01T17:34:47;8.90;79.30
67769;DHT22;54569;52.018;5.584;2023-02-01T17:37:30;8.90;79.20
67769;DHT22;54569;52.018;5.584;2023-02-01T17:39:57;8.90;79.20
67769;DHT22;54569;52.018;5.584;2023-02-01T17:42:24;8.90;79.30
67769;DHT22;54569;52.018;5.584;2023-02-01T17:44:54;8.90;79.30
67769;DHT22;54569;52.018;5.584;2023-02-01T17:47:21;8.90;79.40
67769;DHT22;54569;52.018;5.584;2023-02-01T17:49:47;8.90;79.40
67769;DHT22;54569;52.018;5.584;2023-02-01T17:52:17;8.90;79.50
67769;DHT22;54569;52.018;5.584;2023-02-01T17:54:44;8.90;79.30
67769;DHT22;54569;52.018;5.584;2023-02-01T17:57:15;8.90;79.20
67769;DHT22;54569;52.018;5.584;2023-02-01T17:59:42;9.00;79.20
67769;DHT22;54569;52.018;5.584;2023-02-01T18:02:19;9.00;79.00
67769;DHT22;54569;52.018;5.584;2023-02-01T18:04:45;9.00;78.80
67769;DHT22;54569;52.018;5.584;2023-02-01T18:07:11;9.00;79.00
67769;DHT22;54569;52.018;5.584;2023-02-01T18:09:36;9.00;78.90
67769;DHT22;54569;52.018;5.584;2023-02-01T18:12:04;9.00;79.00
67769;DHT22;54569;52.018;5.584;2023-02-01T18:14:30;9.00;78.90
67769;DHT22;54569;52.018;5.584;2023-02-01T18:16:56;9.10;79.00
67769;DHT22;54569;52.018;5.584;2023-02-01T18:19:21;9.10;79.00
67769;DHT22;54569;52.018;5.584;2023-02-01T18:21:47;9.10;79.10
67769;DHT22;54569;52.018;5.584;2023-02-01T18:24:14;9.00;79.40
67769;DHT22;54569;52.018;5.584;2023-02-01T18:26:41;9.00;79.70
67769;DHT22;54569;52.018;5.584;2023-02-01T18:29:06;9.00;80.10
67769;DHT22;54569;52.018;5.584;2023-02-01T18:31:33;9.00;80.30
67769;DHT22;54569;52.018;5.584;2023-02-01T18:34:00;9.00;80.40
67769;DHT22;54569;52.018;5.584;2023-02-01T18:36:26;9.00;80.60
67769;DHT22;54569;52.018;5.584;2023-02-01T18:38:53;9.00;80.80
67769;DHT22;54569;52.018;5.584;2023-02-01T18:41:22;8.90;80.90
67769;DHT22;54569;52.018;5.584;2023-02-01T18:43:49;8.90;81.00
67769;DHT22;54569;52.018;5.584;2023-02-01T18:46:16;8.90;81.00
67769;DHT22;54569;52.018;5.584;2023-02-01T18:48:42;8.90;81.00
67769;DHT22;54569;52.018;5.584;2023-02-01T18:51:15;8.90;81.00
67769;DHT22;54569;52.018;5.584;2023-02-01T18:53:43;8.90;81.60
67769;DHT22;54569;52.018;5.584;2023-02-01T18:56:11;8.90;81.00
67769;DHT22;54569;52.018;5.584;2023-02-01T18:58:37;8.90;81.00
67769;DHT22;54569;52.018;5.584;2023-02-01T19:01:06;9.00;81.00
67769;DHT22;54569;52.018;5.584;2023-02-01T19:03:36;9.00;81.00
67769;DHT22;54569;52.018;5.584;2023-02-01T19:06:01;8.90;81.00
67769;DHT22;54569;52.018;5.584;2023-02-01T19:08:27;9.00;81.40
67769;DHT22;54569;52.018;5.584;2023-02-01T19:10:53;9.00;80.70
67769;DHT22;54569;52.018;5.584;2023-02-01T19:13:20;9.00;80.80
67769;DHT22;54569;52.018;5.584;2023-02-01T19:15:49;9.00;80.70
67769;DHT22;54569;52.018;5.584;2023-02-01T19:18:14;9.00;80.70